createdAt,value
2016-10-27T00:00:10.243Z,64.02
2016-10-27T00:01:10.232Z,63.92
2016-10-27T00:02:10.213Z,64.12
2016-10-27T00:03:09.888Z,63.92
2016-10-27T00:04:10.185Z,64.02
2016-10-27T00:05:10.164Z,64.02
2016-10-27T00:06:10.148Z,64.12
2016-10-27T00:07:10.133Z,64.22
2016-10-27T00:08:09.797Z,64.22
2016-10-27T00:09:09.781Z,64.22
2016-10-27T00:10:10.078Z,64.79
2016-10-27T00:11:10.060Z,64.79
2016-10-27T00:12:09.731Z,64.79
2016-10-27T00:13:10.024Z,64.5
2016-10-27T00:14:10.013Z,64.6
2016-10-27T00:15:10.004Z,64.4
2016-10-27T00:16:09.982Z,64.6
2016-10-27T00:17:09.959Z,64.69
2016-10-27T00:18:09.948Z,64.6
2016-10-27T00:19:09.925Z,64.31
2016-10-27T00:20:09.914Z,64.31
2016-10-27T00:21:09.892Z,64.69
2016-10-27T00:22:09.880Z,64.5
2016-10-27T00:23:09.870Z,64.37
2016-10-27T00:24:09.529Z,64.12
2016-10-27T00:25:09.838Z,64.6
2016-10-27T00:26:09.819Z,65.17
2016-10-27T00:27:09.821Z,64.6
2016-10-27T00:28:09.778Z,64.98
2016-10-27T00:29:09.763Z,64.89
2016-10-27T00:30:09.742Z,64.69
2016-10-27T00:31:09.764Z,64.69
2016-10-27T00:32:09.707Z,64.69
2016-10-27T00:33:09.377Z,64.98
2016-10-27T00:34:09.677Z,65.05
2016-10-27T00:35:09.664Z,65.08
2016-10-27T00:36:09.649Z,64.6
2016-10-27T00:37:09.625Z,64.69
2016-10-27T00:38:09.300Z,64.66
2016-10-27T00:39:09.595Z,64.69
2016-10-27T00:40:09.582Z,64.4
2016-10-27T00:41:09.558Z,64.95
2016-10-27T00:42:09.543Z,64.69
2016-10-27T00:43:09.212Z,64.95
2016-10-27T00:44:09.510Z,64.85
2016-10-27T00:45:09.498Z,64.95
2016-10-27T00:46:09.158Z,64.6
2016-10-27T00:47:09.467Z,64.89
2016-10-27T00:48:09.444Z,64.47
2016-10-27T00:49:09.435Z,64.98
2016-10-27T00:50:09.408Z,64.79
2016-10-27T00:51:09.390Z,64.69
2016-10-27T00:52:09.061Z,64.85
2016-10-27T00:53:09.041Z,64.85
2016-10-27T00:54:09.339Z,65.27
2016-10-27T00:55:09.321Z,64.98
2016-10-27T00:56:09.310Z,65.05
2016-10-27T00:57:09.293Z,65.14
2016-10-27T00:58:09.282Z,64.95
2016-10-27T00:59:09.254Z,64.56
2016-10-27T01:00:09.249Z,64.95
2016-10-27T01:01:09.222Z,64.85
2016-10-27T01:02:09.202Z,65.05
2016-10-27T01:03:09.192Z,65.43
2016-10-27T01:04:09.181Z,64.5
2016-10-27T01:05:09.161Z,65.43
2016-10-27T01:06:09.139Z,65.43
2016-10-27T01:07:09.121Z,64.56
2016-10-27T01:08:09.109Z,64.85
2016-10-27T01:09:09.124Z,65.23
2016-10-27T01:10:09.073Z,64.95
2016-10-27T01:11:09.056Z,64.47
2016-10-27T01:12:08.720Z,64.66
2016-10-27T01:13:09.021Z,64.95
2016-10-27T01:14:09.010Z,64.95
2016-10-27T01:15:08.985Z,64.66
2016-10-27T01:16:08.655Z,65.05
2016-10-27T01:17:08.950Z,64.66
2016-10-27T01:18:08.938Z,64.95
2016-10-27T01:19:08.920Z,65.14
2016-10-27T01:20:08.910Z,64.85
2016-10-27T01:21:08.891Z,65.23
2016-10-27T01:22:08.871Z,64.95
2016-10-27T01:23:08.851Z,65.05
2016-10-27T01:24:08.833Z,64.85
2016-10-27T01:25:08.816Z,65.14
2016-10-27T01:26:08.806Z,65.05
2016-10-27T01:27:08.473Z,65.05
2016-10-27T01:28:08.764Z,65.14
2016-10-27T01:29:08.438Z,65.14
2016-10-27T01:30:08.730Z,64.76
2016-10-27T01:31:08.718Z,65.23
2016-10-27T01:32:08.699Z,64.76
2016-10-27T01:33:08.680Z,64.76
2016-10-27T01:34:08.666Z,64.76
2016-10-27T01:35:08.651Z,65.05
2016-10-27T01:36:08.320Z,64.95
2016-10-27T01:37:08.625Z,64.95
2016-10-27T01:38:08.283Z,64.76
2016-10-27T01:39:08.578Z,64.95
2016-10-27T01:40:08.565Z,65.05
2016-10-27T01:41:08.550Z,64.95
2016-10-27T01:42:08.531Z,64.95
2016-10-27T01:43:08.513Z,64.76
2016-10-27T01:44:08.504Z,65.81
2016-10-27T01:45:08.481Z,64.95
2016-10-27T01:46:08.470Z,65.14
2016-10-27T01:47:08.447Z,65.23
2016-10-27T01:48:08.115Z,65.05
2016-10-27T01:49:08.413Z,64.85
2016-10-27T01:50:08.081Z,65.33
2016-10-27T01:51:08.386Z,65.33
2016-10-27T01:52:08.362Z,64.95
2016-10-27T01:53:08.345Z,65.53
2016-10-27T01:54:08.330Z,64.85
2016-10-27T01:55:08.312Z,65.53
2016-10-27T01:56:08.294Z,65.43
2016-10-27T01:57:08.274Z,64.85
2016-10-27T01:58:08.267Z,64.76
2016-10-27T01:59:08.270Z,64.76
2016-10-27T02:00:08.228Z,65.05
2016-10-27T02:01:07.901Z,64.85
2016-10-27T02:02:08.197Z,64.85
2016-10-27T02:03:08.177Z,65.43
2016-10-27T02:04:08.159Z,64.95
2016-10-27T02:05:08.143Z,64.85
2016-10-27T02:06:08.127Z,65.14
2016-10-27T02:07:08.106Z,65.23
2016-10-27T02:08:08.088Z,65.23
2016-10-27T02:09:08.069Z,65.05
2016-10-27T02:10:08.060Z,65.14
2016-10-27T02:11:08.041Z,65.05
2016-10-27T02:12:08.029Z,65.23
2016-10-27T02:13:08.009Z,65.53
2016-10-27T02:14:07.993Z,65.23
2016-10-27T02:15:07.975Z,64.95
2016-10-27T02:16:07.645Z,65.05
2016-10-27T02:17:07.938Z,65.05
2016-10-27T02:18:07.606Z,65.23
2016-10-27T02:19:07.904Z,64.95
2016-10-27T02:20:07.890Z,65.33
2016-10-27T02:21:07.879Z,65.05
2016-10-27T02:22:07.856Z,65.33
2016-10-27T02:23:07.835Z,64.76
2016-10-27T02:24:07.821Z,64.95
2016-10-27T02:25:07.802Z,64.76
2016-10-27T02:26:07.787Z,65.14
2016-10-27T02:27:07.772Z,65.05
2016-10-27T02:28:07.753Z,65.33
2016-10-27T02:29:07.737Z,65.53
2016-10-27T02:30:07.408Z,64.66
2016-10-27T02:31:07.703Z,65.23
2016-10-27T02:32:07.683Z,64.85
2016-10-27T02:33:07.665Z,65.33
2016-10-27T02:34:07.653Z,65.81
2016-10-27T02:35:07.640Z,65.05
2016-10-27T02:36:07.617Z,65.05
2016-10-27T02:37:07.599Z,65.14
2016-10-27T02:38:07.583Z,64.95
2016-10-27T02:39:07.563Z,64.76
2016-10-27T02:40:07.554Z,65.23
2016-10-27T02:41:07.533Z,65.43
2016-10-27T02:42:07.517Z,64.95
2016-10-27T02:43:07.498Z,65.43
2016-10-27T02:44:07.484Z,64.95
2016-10-27T02:45:07.464Z,65.53
2016-10-27T02:46:07.446Z,65.05
2016-10-27T02:47:07.431Z,65.23
2016-10-27T02:48:07.408Z,64.95
2016-10-27T02:49:07.399Z,65.53
2016-10-27T02:50:07.380Z,64.95
2016-10-27T02:51:07.359Z,65.23
2016-10-27T02:52:07.348Z,64.85
2016-10-27T02:53:07.331Z,65.05
2016-10-27T02:54:07.313Z,65.23
2016-10-27T02:55:07.294Z,65.05
2016-10-27T02:56:07.275Z,65.05
2016-10-27T02:57:07.264Z,64.95
2016-10-27T02:58:07.252Z,64.76
2016-10-27T02:59:07.229Z,64.85
2016-10-27T03:00:07.210Z,64.95
2016-10-27T03:01:07.196Z,64.95
2016-10-27T03:02:07.173Z,65.05
2016-10-27T03:03:07.164Z,64.95
2016-10-27T03:04:07.137Z,65.81
2016-10-27T03:05:07.132Z,65.53
2016-10-27T03:06:07.107Z,64.76
2016-10-27T03:07:07.097Z,65.43
2016-10-27T03:08:07.074Z,64.95
2016-10-27T03:09:07.055Z,64.85
2016-10-27T03:10:07.039Z,64.76
2016-10-27T03:11:07.028Z,65.14
2016-10-27T03:12:07.006Z,65.43
2016-10-27T03:13:06.988Z,64.95
2016-10-27T03:14:06.969Z,65.05
2016-10-27T03:15:06.636Z,65.33
2016-10-27T03:16:06.935Z,65.33
2016-10-27T03:17:06.923Z,65.05
2016-10-27T03:18:06.938Z,64.85
2016-10-27T03:19:06.889Z,65.23
2016-10-27T03:20:06.872Z,65.05
2016-10-27T03:21:06.859Z,64.85
2016-10-27T03:22:06.836Z,65.23
2016-10-27T03:23:06.817Z,65.33
2016-10-27T03:24:06.803Z,65.23
2016-10-27T03:25:06.794Z,65.14
2016-10-27T03:26:06.771Z,65.14
2016-10-27T03:27:06.752Z,65.05
2016-10-27T03:28:06.739Z,65.05
2016-10-27T03:29:06.408Z,65.05
2016-10-27T03:30:06.704Z,65.23
2016-10-27T03:31:06.684Z,65.14
2016-10-27T03:32:06.668Z,64.95
2016-10-27T03:33:06.657Z,65.05
2016-10-27T03:34:06.637Z,65.23
2016-10-27T03:35:06.623Z,65.53
2016-10-27T03:36:06.601Z,65.14
2016-10-27T03:37:06.583Z,65.14
2016-10-27T03:38:06.564Z,65.14
2016-10-27T03:39:06.548Z,65.14
2016-10-27T03:40:06.535Z,65.53
2016-10-27T03:41:06.516Z,65.43
2016-10-27T03:42:06.503Z,65.05
2016-10-27T03:43:06.480Z,65.14
2016-10-27T03:44:06.469Z,65.14
2016-10-27T03:45:06.447Z,65.33
2016-10-27T03:46:06.432Z,65.43
2016-10-27T03:47:06.413Z,65.33
2016-10-27T03:48:06.396Z,65.33
2016-10-27T03:49:06.382Z,65.05
2016-10-27T03:50:06.048Z,65.14
2016-10-27T03:51:06.353Z,64.95
2016-10-27T03:52:06.332Z,65.14
2016-10-27T03:53:06.309Z,65.05
2016-10-27T03:54:06.294Z,65.05
2016-10-27T03:55:06.273Z,65.14
2016-10-27T03:56:06.264Z,65.53
2016-10-27T03:57:06.244Z,65.23
2016-10-27T03:58:06.228Z,65.23
2016-10-27T03:59:06.207Z,65.2
2016-10-27T04:00:06.199Z,65.23
2016-10-27T04:01:06.174Z,65.23
2016-10-27T04:02:06.160Z,65.05
2016-10-27T04:03:06.145Z,65.14
2016-10-27T04:04:06.125Z,65.53
2016-10-27T04:05:06.110Z,65.91
2016-10-27T04:06:06.089Z,65.33
2016-10-27T04:07:06.076Z,65.14
2016-10-27T04:08:06.056Z,65.14
2016-10-27T04:09:06.037Z,65.14
2016-10-27T04:10:06.026Z,65.53
2016-10-27T04:11:06.007Z,65.72
2016-10-27T04:12:05.994Z,65.91
2016-10-27T04:13:05.970Z,65.75
2016-10-27T04:14:05.953Z,65.84
2016-10-27T04:15:05.940Z,66.04
2016-10-27T04:16:05.921Z,65.75
2016-10-27T04:17:05.906Z,65.37
2016-10-27T04:18:05.884Z,65.08
2016-10-27T04:19:05.865Z,64.4
2016-10-27T04:20:05.855Z,64.79
2016-10-27T04:21:05.837Z,65.11
2016-10-27T04:22:05.826Z,64.53
2016-10-27T04:23:05.799Z,64.82
2016-10-27T04:24:05.790Z,64.34
2016-10-27T04:25:05.768Z,64.15
2016-10-27T04:26:05.758Z,64.15
2016-10-27T04:27:05.734Z,64.43
2016-10-27T04:28:05.714Z,64.15
2016-10-27T04:29:05.704Z,63.57
2016-10-27T04:30:05.680Z,64.34
2016-10-27T04:31:05.675Z,63.76
2016-10-27T04:32:05.652Z,63.95
2016-10-27T04:33:05.637Z,63.67
2016-10-27T04:34:05.617Z,63.28
2016-10-27T04:35:05.608Z,64.15
2016-10-27T04:36:05.272Z,63.48
2016-10-27T04:37:05.609Z,64.15
2016-10-27T04:38:05.548Z,63.95
2016-10-27T04:39:05.537Z,63.28
2016-10-27T04:40:05.518Z,64.25
2016-10-27T04:41:05.185Z,64.15
2016-10-27T04:42:05.487Z,64.63
2016-10-27T04:43:05.465Z,64.15
2016-10-27T04:44:05.449Z,64.05
2016-10-27T04:45:05.431Z,64.34
2016-10-27T04:46:05.423Z,64.34
2016-10-27T04:47:05.404Z,64.43
2016-10-27T04:48:05.381Z,64.63
2016-10-27T04:49:05.398Z,64.43
2016-10-27T04:50:05.032Z,64.53
2016-10-27T04:51:05.017Z,64.25
2016-10-27T04:52:05.318Z,64.92
2016-10-27T04:53:05.460Z,64.34
2016-10-27T04:54:05.280Z,64.25
2016-10-27T04:55:05.274Z,64.05
2016-10-27T04:56:05.248Z,64.05
2016-10-27T04:57:05.236Z,64.05
2016-10-27T04:58:04.901Z,64.25
2016-10-27T04:59:05.198Z,64.53
2016-10-27T05:00:04.906Z,64.15
2016-10-27T05:01:05.165Z,64.82
2016-10-27T05:02:05.150Z,64.82
2016-10-27T05:03:05.137Z,64.73
2016-10-27T05:04:05.112Z,64.82
2016-10-27T05:05:05.098Z,64.92
2016-10-27T05:06:05.081Z,64.53
2016-10-27T05:07:04.758Z,64.15
2016-10-27T05:08:04.739Z,63.86
2016-10-27T05:09:05.035Z,64.25
2016-10-27T05:10:05.015Z,63.89
2016-10-27T05:11:04.996Z,64.18
2016-10-27T05:12:04.988Z,63.31
2016-10-27T05:13:04.963Z,64.37
2016-10-27T05:14:04.951Z,64.18
2016-10-27T05:15:04.935Z,64.18
2016-10-27T05:16:04.610Z,64.08
2016-10-27T05:17:04.585Z,63.76
2016-10-27T05:18:04.572Z,64.56
2016-10-27T05:19:04.866Z,63.7
2016-10-27T05:20:04.850Z,63.76
2016-10-27T05:21:04.835Z,63.67
2016-10-27T05:22:04.812Z,63.67
2016-10-27T05:23:04.799Z,63.28
2016-10-27T05:24:04.779Z,62.9
2016-10-27T05:25:04.768Z,62.99
2016-10-27T05:26:04.750Z,62.8
2016-10-27T05:27:04.731Z,63.18
2016-10-27T05:28:04.718Z,63.28
2016-10-27T05:29:04.700Z,64.25
2016-10-27T05:30:04.683Z,64.34
2016-10-27T05:31:04.668Z,64.53
2016-10-27T05:32:04.657Z,65.5
2016-10-27T05:33:04.640Z,64.82
2016-10-27T05:34:04.618Z,65.2
2016-10-27T05:35:04.603Z,65.2
2016-10-27T05:36:04.583Z,64.73
2016-10-27T05:37:04.569Z,64.63
2016-10-27T05:38:04.590Z,64.25
2016-10-27T05:39:04.532Z,63.95
2016-10-27T05:40:04.523Z,64.25
2016-10-27T05:41:04.501Z,64.53
2016-10-27T05:42:04.490Z,63.86
2016-10-27T05:43:04.463Z,63.86
2016-10-27T05:44:04.452Z,63.48
2016-10-27T05:45:04.441Z,63.57
2016-10-27T05:46:04.105Z,63.18
2016-10-27T05:47:04.409Z,63.86
2016-10-27T05:48:04.399Z,63.48
2016-10-27T05:49:04.050Z,63.67
2016-10-27T05:50:04.388Z,63.67
2016-10-27T05:51:04.339Z,64.34
2016-10-27T05:52:04.326Z,64.05
2016-10-27T05:53:04.298Z,64.15
2016-10-27T05:54:04.291Z,63.28
2016-10-27T05:55:04.268Z,63.95
2016-10-27T05:56:03.939Z,63.38
2016-10-27T05:57:04.232Z,63.38
2016-10-27T05:58:03.914Z,63.09
2016-10-27T05:59:04.201Z,63.18
2016-10-27T06:00:04.186Z,63.09
2016-10-27T06:01:04.178Z,63.09
2016-10-27T06:02:04.154Z,62.99
2016-10-27T06:03:04.140Z,62.9
2016-10-27T06:04:04.119Z,63.18
2016-10-27T06:05:04.141Z,62.99
2016-10-27T06:06:04.085Z,63.18
2016-10-27T06:07:03.755Z,63.86
2016-10-27T06:08:04.053Z,64.53
2016-10-27T06:09:04.036Z,63.76
2016-10-27T06:10:03.709Z,64.05
2016-10-27T06:11:04.002Z,63.48
2016-10-27T06:12:03.991Z,63.18
2016-10-27T06:13:03.976Z,63.67
2016-10-27T06:14:03.642Z,63.38
2016-10-27T06:15:03.624Z,63.28
2016-10-27T06:16:03.960Z,63.86
2016-10-27T06:17:03.909Z,63.48
2016-10-27T06:18:03.888Z,63.67
2016-10-27T06:19:03.875Z,63.67
2016-10-27T06:20:03.541Z,63.28
2016-10-27T06:21:03.524Z,63.18
2016-10-27T06:22:03.830Z,63.38
2016-10-27T06:23:03.809Z,63.57
2016-10-27T06:24:03.471Z,63.86
2016-10-27T06:25:03.459Z,63.86
2016-10-27T06:26:03.756Z,63.95
2016-10-27T06:27:03.428Z,64.15
2016-10-27T06:28:03.722Z,64.05
2016-10-27T06:29:03.707Z,64.34
2016-10-27T06:30:03.691Z,63.95
2016-10-27T06:31:03.674Z,63.86
2016-10-27T06:32:03.701Z,63.76
2016-10-27T06:33:03.643Z,64.15
2016-10-27T06:34:03.622Z,64.15
2016-10-27T06:35:03.607Z,63.86
2016-10-27T06:36:03.597Z,63.76
2016-10-27T06:37:03.572Z,64.15
2016-10-27T06:38:03.555Z,64.43
2016-10-27T06:39:03.544Z,64.43
2016-10-27T06:40:03.211Z,63.95
2016-10-27T06:41:03.505Z,64.05
2016-10-27T06:42:03.496Z,64.25
2016-10-27T06:43:03.482Z,64.43
2016-10-27T06:44:03.460Z,63.95
2016-10-27T06:45:03.483Z,64.05
2016-10-27T06:46:03.425Z,64.15
2016-10-27T06:47:03.412Z,64.34
2016-10-27T06:48:03.395Z,64.15
2016-10-27T06:49:03.375Z,64.25
2016-10-27T06:50:03.078Z,64.43
2016-10-27T06:51:03.345Z,64.25
2016-10-27T06:52:03.339Z,64.05
2016-10-27T06:53:03.306Z,64.43
2016-10-27T06:54:03.295Z,64.15
2016-10-27T06:55:03.278Z,64.05
2016-10-27T06:56:03.255Z,64.53
2016-10-27T06:57:03.241Z,64.63
2016-10-27T06:58:03.234Z,64.43
2016-10-27T06:59:03.231Z,64.63
2016-10-27T07:00:02.874Z,64.34
2016-10-27T07:01:03.217Z,64.53
2016-10-27T07:02:03.205Z,64.53
2016-10-27T07:03:02.828Z,64.43
2016-10-27T07:04:03.127Z,64.73
2016-10-27T07:05:02.795Z,64.43
2016-10-27T07:06:03.095Z,64.34
2016-10-27T07:07:03.085Z,64.43
2016-10-27T07:08:03.064Z,64.6
2016-10-27T07:09:03.040Z,64.25
2016-10-27T07:10:03.028Z,64.5
2016-10-27T07:11:03.033Z,64.5
2016-10-27T07:12:02.993Z,64.22
2016-10-27T07:13:02.982Z,65.2
2016-10-27T07:14:02.643Z,65.27
2016-10-27T07:15:02.950Z,64.89
2016-10-27T07:16:02.930Z,64.89
2016-10-27T07:17:02.915Z,64.6
2016-10-27T07:18:02.894Z,65.17
2016-10-27T07:19:02.876Z,64.98
2016-10-27T07:20:02.864Z,64.89
2016-10-27T07:21:02.844Z,64.69
2016-10-27T07:22:02.826Z,65.17
2016-10-27T07:23:02.807Z,65.17
2016-10-27T07:24:02.796Z,64.4
2016-10-27T07:25:02.781Z,65.27
2016-10-27T07:26:02.446Z,64.22
2016-10-27T07:27:02.431Z,64.69
2016-10-27T07:28:02.731Z,65.17
2016-10-27T07:29:02.710Z,65.27
2016-10-27T07:30:02.699Z,65.27
2016-10-27T07:31:02.682Z,64.79
2016-10-27T07:32:02.349Z,64.69
2016-10-27T07:33:02.647Z,64.98
2016-10-27T07:34:02.632Z,65.08
2016-10-27T07:35:02.297Z,64.98
2016-10-27T07:36:02.597Z,64.6
2016-10-27T07:37:02.585Z,65.08
2016-10-27T07:38:02.251Z,64.69
2016-10-27T07:39:02.551Z,64.89
2016-10-27T07:40:02.217Z,64.5
2016-10-27T07:41:02.515Z,64.69
2016-10-27T07:42:02.510Z,64.89
2016-10-27T07:43:02.477Z,64.79
2016-10-27T07:44:02.461Z,64.98
2016-10-27T07:45:02.448Z,64.6
2016-10-27T07:46:02.436Z,64.69
2016-10-27T07:47:02.420Z,65.08
2016-10-27T07:48:02.397Z,65.17
2016-10-27T07:49:02.380Z,64.4
2016-10-27T07:50:02.364Z,65.08
2016-10-27T07:51:02.349Z,65.08
2016-10-27T07:52:02.332Z,64.98
2016-10-27T07:53:02.315Z,64.6
2016-10-27T07:54:02.295Z,64.69
2016-10-27T07:55:02.284Z,64.4
2016-10-27T07:56:02.259Z,64.22
2016-10-27T07:57:02.246Z,64.12
2016-10-27T07:58:01.916Z,64.31
2016-10-27T07:59:02.221Z,64.02
2016-10-27T08:00:02.194Z,64.31
2016-10-27T08:01:02.179Z,64.22
2016-10-27T08:02:01.850Z,64.22
2016-10-27T08:03:02.148Z,64.31
2016-10-27T08:04:02.131Z,64.02
2016-10-27T08:05:02.114Z,64.22
2016-10-27T08:06:01.783Z,64.31
2016-10-27T08:07:01.768Z,64.31
2016-10-27T08:08:02.066Z,64.02
2016-10-27T08:09:02.051Z,64.22
2016-10-27T08:10:01.718Z,64.31
2016-10-27T08:11:02.009Z,64.12
2016-10-27T08:12:01.995Z,64.12
2016-10-27T08:13:01.974Z,64.4
2016-10-27T08:14:01.963Z,64.02
2016-10-27T08:15:01.632Z,64.22
2016-10-27T08:16:01.928Z,64.31
2016-10-27T08:17:01.914Z,64.02
2016-10-27T08:18:01.896Z,64.31
2016-10-27T08:19:01.885Z,64.02
2016-10-27T08:20:01.866Z,64.12
2016-10-27T08:21:01.847Z,64.02
2016-10-27T08:22:01.832Z,64.02
2016-10-27T08:23:01.815Z,63.92
2016-10-27T08:24:01.806Z,64.31
2016-10-27T08:25:01.782Z,64.79
2016-10-27T08:26:01.764Z,64.79
2016-10-27T08:27:01.747Z,64.5
2016-10-27T08:28:01.416Z,64.5
2016-10-27T08:29:01.749Z,64.69
2016-10-27T08:30:01.706Z,64.69
2016-10-27T08:31:01.676Z,64.6
2016-10-27T08:32:01.662Z,64.5
2016-10-27T08:33:01.646Z,64.69
2016-10-27T08:34:01.627Z,64.6
2016-10-27T08:35:01.605Z,64.4
2016-10-27T08:36:01.629Z,64.4
2016-10-27T08:37:01.577Z,64.5
2016-10-27T08:38:01.566Z,64.5
2016-10-27T08:39:01.599Z,64.4
2016-10-27T08:40:01.215Z,64.79
2016-10-27T08:41:01.199Z,64.31
2016-10-27T08:42:01.493Z,64.69
2016-10-27T08:43:01.479Z,64.79
2016-10-27T08:44:01.149Z,64.89
2016-10-27T08:45:01.440Z,65.08
2016-10-27T08:46:01.429Z,64.69
2016-10-27T08:47:01.413Z,65.27
2016-10-27T08:48:01.392Z,64.69
2016-10-27T08:49:01.411Z,64.31
2016-10-27T08:50:01.359Z,64.5
2016-10-27T08:51:01.344Z,64.5
2016-10-27T08:52:01.327Z,64.5
2016-10-27T08:53:01.313Z,65.27
2016-10-27T08:54:01.299Z,64.79
2016-10-27T08:55:01.277Z,64.79
2016-10-27T08:56:01.260Z,64.89
2016-10-27T08:57:00.927Z,65.17
2016-10-27T08:58:01.228Z,65.17
2016-10-27T08:59:01.210Z,65.08
2016-10-27T09:00:01.195Z,64.6
2016-10-27T09:01:00.860Z,64.5
2016-10-27T09:02:01.164Z,65.27
2016-10-27T09:03:01.148Z,64.98
2016-10-27T09:04:00.808Z,65.08
2016-10-27T09:05:01.111Z,64.98
2016-10-27T09:06:01.114Z,65.27
2016-10-27T09:07:00.761Z,64.98
2016-10-27T09:08:00.741Z,64.89
2016-10-27T09:09:00.727Z,64.89
2016-10-27T09:10:01.042Z,64.89
2016-10-27T09:11:01.008Z,64.79
2016-10-27T09:12:00.994Z,64.89
2016-10-27T09:13:00.975Z,65.08
2016-10-27T09:14:00.652Z,64.79
2016-10-27T09:15:00.941Z,64.98
2016-10-27T09:16:00.927Z,64.89
2016-10-27T09:17:00.916Z,64.89
2016-10-27T09:18:00.889Z,64.79
2016-10-27T09:19:00.878Z,64.69
2016-10-27T09:20:00.860Z,65.08
2016-10-27T09:21:00.842Z,64.69
2016-10-27T09:22:00.828Z,64.69
2016-10-27T09:23:00.492Z,64.89
2016-10-27T09:24:00.788Z,64.69
2016-10-27T09:25:00.771Z,64.6
2016-10-27T09:26:00.760Z,64.79
2016-10-27T09:27:00.743Z,64.69
2016-10-27T09:28:00.731Z,64.69
2016-10-27T09:29:00.706Z,64.69
2016-10-27T09:30:00.685Z,64.79
2016-10-27T09:31:00.671Z,64.79
2016-10-27T09:32:00.349Z,64.98
2016-10-27T09:33:00.645Z,65.08
2016-10-27T09:34:00.618Z,64.89
2016-10-27T09:35:00.608Z,64.79
2016-10-27T09:36:00.591Z,64.98
2016-10-27T09:37:00.583Z,64.98
2016-10-27T09:38:00.559Z,65.08
2016-10-27T09:39:00.227Z,65.08
2016-10-27T09:40:00.521Z,65.08
2016-10-27T09:41:00.517Z,64.79
2016-10-27T09:42:00.496Z,64.79
2016-10-27T09:43:00.481Z,64.98
2016-10-27T09:44:00.148Z,64.79
2016-10-27T09:45:00.436Z,64.89
2016-10-27T09:46:00.422Z,64.89
2016-10-27T09:47:00.406Z,64.79
2016-10-27T09:48:00.071Z,64.98
2016-10-27T09:49:00.374Z,65.08
2016-10-27T09:50:00.350Z,65.08
2016-10-27T09:51:00.341Z,64.69
2016-10-27T09:52:00.320Z,65.08
2016-10-27T09:53:00.304Z,65.08
2016-10-27T09:54:00.283Z,65.08
2016-10-27T09:55:00.270Z,64.79
2016-10-27T09:56:00.259Z,64.98
2016-10-27T09:57:00.236Z,65.17
2016-10-27T09:58:00.218Z,64.6
2016-10-27T09:58:59.888Z,64.5
2016-10-27T10:00:00.193Z,64.79
2016-10-27T10:01:00.167Z,64.89
2016-10-27T10:02:00.146Z,64.79
2016-10-27T10:02:59.823Z,64.6
2016-10-27T10:04:00.120Z,64.6
2016-10-27T10:05:00.100Z,65.08
2016-10-27T10:06:00.081Z,64.79
2016-10-27T10:07:00.065Z,64.98
2016-10-27T10:07:59.740Z,65.08
2016-10-27T10:09:00.031Z,65.08
2016-10-27T10:09:59.700Z,64.98
2016-10-27T10:11:00.002Z,64.69
2016-10-27T10:11:59.985Z,64.69
2016-10-27T10:12:59.964Z,64.69
2016-10-27T10:13:59.633Z,65.05
2016-10-27T10:14:59.932Z,64.69
2016-10-27T10:15:59.914Z,64.98
2016-10-27T10:16:59.899Z,65.08
2016-10-27T10:17:59.886Z,64.98
2016-10-27T10:18:59.864Z,64.89
2016-10-27T10:19:59.848Z,64.69
2016-10-27T10:20:59.522Z,65.08
2016-10-27T10:21:59.815Z,64.69
2016-10-27T10:22:59.794Z,64.69
2016-10-27T10:23:59.782Z,64.98
2016-10-27T10:24:59.448Z,64.98
2016-10-27T10:25:59.769Z,64.6
2016-10-27T10:26:59.729Z,65.08
2016-10-27T10:27:59.402Z,65.08
2016-10-27T10:28:59.698Z,65.17
2016-10-27T10:29:59.692Z,64.98
2016-10-27T10:30:59.666Z,65.17
2016-10-27T10:31:59.655Z,64.89
2016-10-27T10:32:59.636Z,64.98
2016-10-27T10:33:59.616Z,65.08
2016-10-27T10:34:59.594Z,65.08
2016-10-27T10:35:59.579Z,65.08
2016-10-27T10:36:59.563Z,64.79
2016-10-27T10:37:59.236Z,64.89
2016-10-27T10:38:59.531Z,64.89
2016-10-27T10:39:59.509Z,64.89
2016-10-27T10:40:59.496Z,65.27
2016-10-27T10:41:59.161Z,65.17
2016-10-27T10:42:59.470Z,64.98
2016-10-27T10:43:59.471Z,65.08
2016-10-27T10:44:59.433Z,64.89
2016-10-27T10:45:59.418Z,64.4
2016-10-27T10:46:59.393Z,64.47
2016-10-27T10:47:59.387Z,64.89
2016-10-27T10:48:59.363Z,64.5
2016-10-27T10:49:59.343Z,64.79
2016-10-27T10:50:59.014Z,64.22
2016-10-27T10:51:59.537Z,64.5
2016-10-27T10:52:59.293Z,64.5
2016-10-27T10:53:59.274Z,64.5
2016-10-27T10:54:59.261Z,64.5
2016-10-27T10:55:59.251Z,64.5
2016-10-27T10:56:59.230Z,64.5
2016-10-27T10:57:59.212Z,64.5
2016-10-27T10:58:59.198Z,64.6
2016-10-27T10:59:59.169Z,64.6
2016-10-27T11:00:59.165Z,64.4
2016-10-27T11:01:58.825Z,64.69
2016-10-27T11:02:59.125Z,64.69
2016-10-27T11:03:59.108Z,64.5
2016-10-27T11:04:59.089Z,64.4
2016-10-27T11:05:59.074Z,64.69
2016-10-27T11:06:59.056Z,64.6
2016-10-27T11:07:59.039Z,64.4
2016-10-27T11:08:59.024Z,64.5
2016-10-27T11:09:59.007Z,64.6
2016-10-27T11:10:58.992Z,64.69
2016-10-27T11:11:58.974Z,64.4
2016-10-27T11:12:58.953Z,64.89
2016-10-27T11:13:58.942Z,64.4
2016-10-27T11:14:58.922Z,64.69
2016-10-27T11:15:58.905Z,64.6
2016-10-27T11:16:58.930Z,64.6
2016-10-27T11:17:58.873Z,64.6
2016-10-27T11:18:58.858Z,64.4
2016-10-27T11:19:58.839Z,64.5
2016-10-27T11:20:58.823Z,64.6
2016-10-27T11:21:58.488Z,64.6
2016-10-27T11:22:58.549Z,64.69
2016-10-27T11:23:58.774Z,64.5
2016-10-27T11:24:58.761Z,64.69
2016-10-27T11:25:58.740Z,64.89
2016-10-27T11:26:58.716Z,64.5
2016-10-27T11:27:58.707Z,64.79
2016-10-27T11:28:58.686Z,64.6
2016-10-27T11:29:58.680Z,64.5
2016-10-27T11:30:58.661Z,64.6
2016-10-27T11:31:58.640Z,64.4
2016-10-27T11:32:58.619Z,64.6
2016-10-27T11:33:58.614Z,64.6
2016-10-27T11:34:58.585Z,64.5
2016-10-27T11:35:58.567Z,64.4
2016-10-27T11:36:58.552Z,64.6
2016-10-27T11:37:58.539Z,64.79
2016-10-27T11:38:58.558Z,64.5
2016-10-27T11:39:58.503Z,64.98
2016-10-27T11:40:58.485Z,64.5
2016-10-27T11:41:58.471Z,64.6
2016-10-27T11:42:58.453Z,64.5
2016-10-27T11:43:58.434Z,64.5
2016-10-27T11:44:58.424Z,64.69
2016-10-27T11:45:58.398Z,64.5
2016-10-27T11:46:58.388Z,64.56
2016-10-27T11:47:58.371Z,64.69
2016-10-27T11:48:58.357Z,64.79
2016-10-27T11:49:58.339Z,64.69
2016-10-27T11:50:58.035Z,64.37
2016-10-27T11:51:58.303Z,64.89
2016-10-27T11:52:58.279Z,64.69
2016-10-27T11:53:57.956Z,64.69
2016-10-27T11:54:57.932Z,64.4
2016-10-27T11:55:58.233Z,64.69
2016-10-27T11:56:57.898Z,64.6
2016-10-27T11:57:58.200Z,64.4
2016-10-27T11:58:58.188Z,64.69
2016-10-27T11:59:58.164Z,64.5
2016-10-27T12:00:58.148Z,64.5
2016-10-27T12:01:57.818Z,64.6
2016-10-27T12:02:58.115Z,64.6
2016-10-27T12:03:58.099Z,64.98
2016-10-27T12:04:58.095Z,64.79
2016-10-27T12:05:58.059Z,64.5
2016-10-27T12:06:58.040Z,64.89
2016-10-27T12:07:58.029Z,64.4
2016-10-27T12:08:58.017Z,64.5
2016-10-27T12:09:57.681Z,64.89
2016-10-27T12:10:57.970Z,64.5
2016-10-27T12:11:57.991Z,64.5
2016-10-27T12:12:57.950Z,64.5
2016-10-27T12:13:57.927Z,64.69
2016-10-27T12:14:57.908Z,64.5
2016-10-27T12:15:57.893Z,64.69
2016-10-27T12:16:57.878Z,64.47
2016-10-27T12:17:57.861Z,64.02
2016-10-27T12:18:57.845Z,64.31
2016-10-27T12:19:57.822Z,64.28
2016-10-27T12:20:57.805Z,64.5
2016-10-27T12:21:57.482Z,64.22
2016-10-27T12:22:57.780Z,64.31
2016-10-27T12:23:57.757Z,64.4
2016-10-27T12:24:57.428Z,64.37
2016-10-27T12:25:57.730Z,64.47
2016-10-27T12:26:57.708Z,64.18
2016-10-27T12:27:57.701Z,64.37
2016-10-27T12:28:57.681Z,64.56
2016-10-27T12:29:57.664Z,64.22
2016-10-27T12:30:57.639Z,64.18
2016-10-27T12:31:57.310Z,64.5
2016-10-27T12:32:57.605Z,64.4
2016-10-27T12:33:57.593Z,64.5
2016-10-27T12:34:57.572Z,64.22
2016-10-27T12:35:57.557Z,64.18
2016-10-27T12:36:57.547Z,64.12
2016-10-27T12:37:57.521Z,63.99
2016-10-27T12:38:57.509Z,64.28
2016-10-27T12:39:57.488Z,64.37
2016-10-27T12:40:57.475Z,64.37
2016-10-27T12:41:57.460Z,64.18
2016-10-27T12:42:57.434Z,64.22
2016-10-27T12:43:57.111Z,64.18
2016-10-27T12:44:57.404Z,64.47
2016-10-27T12:45:57.385Z,64.22
2016-10-27T12:46:57.372Z,64.28
2016-10-27T12:47:57.352Z,64.28
2016-10-27T12:48:57.337Z,63.99
2016-10-27T12:49:57.326Z,64.22
2016-10-27T12:50:57.305Z,64.28
2016-10-27T12:51:56.975Z,64.09
2016-10-27T12:52:57.268Z,64.18
2016-10-27T12:53:57.256Z,64.18
2016-10-27T12:54:57.232Z,64.18
2016-10-27T12:55:57.222Z,64.28